Time;durP1;ratioP1;P1;durP2;ratioP2;P2;SDS_P1;SDS_P2;PMS_P1;PMS_P2;Temp;Humidity;BMP_temperature;BMP_pressure;BME280_temperature;BME280_humidity;BME280_pressure;Samples;Min_cycle;Max_cycle;Signal;HPM_P1;HPM_P2
2022/07/07 00:01:11;;;;;;;7.57;1.85;;;22.00;47.60;;;;;;5033681;28;20025;-69
2022/07/07 00:03:37;;;;;;;5.65;1.95;;;21.90;48.00;;;;;;5033632;28;20399;-68
2022/07/07 00:06:03;;;;;;;3.90;1.70;;;21.90;47.90;;;;;;5033670;28;20022;-70
2022/07/07 00:08:29;;;;;;;2.65;1.85;;;21.80;47.90;;;;;;5033631;28;20025;-69
2022/07/07 00:10:56;;;;;;;1.98;1.63;;;21.80;48.20;;;;;;5033548;28;20037;-71
2022/07/07 00:13:22;;;;;;;2.35;2.00;;;21.80;48.20;;;;;;5033449;28;20029;-70
2022/07/07 00:15:48;;;;;;;2.67;1.85;;;21.80;48.40;;;;;;5032269;28;20026;-70
2022/07/07 00:18:15;;;;;;;2.38;1.80;;;21.80;48.80;;;;;;5033520;28;20070;-69
2022/07/07 00:20:43;;;;;;;4.18;2.08;;;21.80;48.70;;;;;;5033320;28;20037;-70
2022/07/07 00:23:09;;;;;;;7.03;2.72;;;21.80;49.00;;;;;;5032126;28;20017;-70
2022/07/07 00:25:35;;;;;;;2.35;1.90;;;21.80;49.10;;;;;;5032056;28;20041;-70
2022/07/07 00:28:00;;;;;;;1.83;1.63;;;21.80;49.20;;;;;;5033382;28;20097;-72
2022/07/07 00:30:26;;;;;;;2.60;2.00;;;21.90;49.20;;;;;;5033312;28;20506;-71
2022/07/07 00:32:52;;;;;;;3.83;1.67;;;21.90;49.40;;;;;;5033256;28;20360;-69
2022/07/07 00:35:18;;;;;;;2.63;2.22;;;21.90;49.30;;;;;;5033267;28;20029;-69
2022/07/07 00:37:44;;;;;;;2.60;2.00;;;21.80;49.30;;;;;;5031949;28;20025;-72
2022/07/07 00:40:10;;;;;;;3.67;2.28;;;21.90;49.50;;;;;;5033035;28;20022;-70
2022/07/07 00:42:36;;;;;;;2.30;2.10;;;21.90;50.20;;;;;;5032792;28;20475;-71
2022/07/07 00:45:02;;;;;;;2.75;1.80;;;21.80;50.20;;;;;;5033101;28;20032;-71
2022/07/07 00:47:34;;;;;;;2.50;2.00;;;21.80;50.40;;;;;;5033125;28;20360;-70
2022/07/07 00:50:01;;;;;;;3.88;2.38;;;21.80;51.20;;;;;;5033073;28;20021;-70
2022/07/07 00:52:27;;;;;;;2.88;2.13;;;21.80;50.90;;;;;;5031757;28;20364;-69
2022/07/07 00:54:56;;;;;;;3.63;2.47;;;21.80;50.90;;;;;;5033039;28;20080;-69
2022/07/07 00:57:23;;;;;;;6.32;2.20;;;21.80;50.80;;;;;;5032776;28;20152;-69
2022/07/07 00:59:49;;;;;;;2.67;2.10;;;21.80;51.00;;;;;;5032934;28;20033;-71
2022/07/07 01:02:15;;;;;;;5.63;2.08;;;21.80;51.20;;;;;;5032623;28;20068;-69
2022/07/07 01:04:42;;;;;;;2.75;1.98;;;21.80;51.20;;;;;;5032656;28;20052;-73
2022/07/07 01:07:07;;;;;;;6.07;2.15;;;21.80;51.70;;;;;;5031392;28;20028;-69
2022/07/07 01:09:34;;;;;;;2.50;2.00;;;21.80;51.90;;;;;;5032570;28;20475;-71
2022/07/07 01:12:00;;;;;;;2.80;2.00;;;21.80;52.00;;;;;;5032606;28;20036;-69
2022/07/07 01:14:26;;;;;;;3.80;1.92;;;21.80;52.00;;;;;;5031353;28;20037;-69
2022/07/07 01:16:53;;;;;;;6.68;2.15;;;21.80;52.20;;;;;;5031326;28;20025;-69
2022/07/07 01:19:20;;;;;;;6.40;3.10;;;21.80;52.20;;;;;;5031226;28;20557;-71
2022/07/07 01:22:13;;;;;;;2.63;1.90;;;21.80;52.00;;;;;;5031200;28;20029;-69
2022/07/07 01:24:39;;;;;;;4.30;1.90;;;21.70;51.60;;;;;;5032552;28;20025;-71
2022/07/07 01:27:09;;;;;;;5.03;2.15;;;21.70;51.70;;;;;;5032479;28;20033;-72
2022/07/07 01:29:37;;;;;;;5.00;2.13;;;21.70;52.00;;;;;;5032403;28;20022;-70
2022/07/07 01:32:04;;;;;;;2.20;2.05;;;21.70;52.20;;;;;;5032434;28;20021;-69
2022/07/07 01:34:30;;;;;;;2.88;2.13;;;21.70;52.40;;;;;;5032499;28;20026;-71
2022/07/07 01:36:56;;;;;;;3.15;2.20;;;21.60;52.40;;;;;;5032439;28;20034;-70
2022/07/07 01:39:22;;;;;;;4.30;2.50;;;21.60;52.50;;;;;;5032462;28;20059;-71
2022/07/07 01:41:48;;;;;;;4.63;2.33;;;21.60;52.50;;;;;;5031094;28;20415;-71
2022/07/07 01:44:14;;;;;;;4.03;2.20;;;21.60;52.40;;;;;;5032329;28;20471;-69
2022/07/07 01:46:39;;;;;;;5.43;2.30;;;21.60;52.90;;;;;;5032396;28;20096;-71
2022/07/07 01:49:05;;;;;;;4.00;2.10;;;21.60;52.20;;;;;;5032296;28;20021;-70
2022/07/07 01:51:31;;;;;;;3.78;2.33;;;21.60;52.00;;;;;;5032300;28;20030;-70
2022/07/07 01:53:57;;;;;;;3.63;2.42;;;21.60;51.90;;;;;;5033220;28;20052;-71
2022/07/07 01:56:23;;;;;;;5.82;2.03;;;21.60;51.70;;;;;;5034468;28;20083;-69
2022/07/07 01:58:48;;;;;;;7.78;2.50;;;21.60;51.60;;;;;;5035956;28;20034;-69
2022/07/07 02:01:14;;;;;;;4.55;2.60;;;21.60;52.00;;;;;;5035740;28;20111;-71
2022/07/07 02:03:40;;;;;;;4.13;2.72;;;21.60;52.20;;;;;;5035856;28;20026;-71
2022/07/07 02:06:06;;;;;;;2.80;2.22;;;21.60;52.10;;;;;;5035776;28;20403;-70
2022/07/07 02:08:32;;;;;;;9.25;2.55;;;21.60;52.10;;;;;;5035715;28;20104;-71
2022/07/07 02:11:13;;;;;;;2.63;2.42;;;21.60;52.00;;;;;;5034515;28;20104;-69
2022/07/07 02:13:47;;;;;;;4.78;2.30;;;21.60;52.10;;;;;;5035692;28;20025;-69
2022/07/07 02:16:14;;;;;;;3.33;2.20;;;21.70;52.00;;;;;;5035641;28;20100;-69
2022/07/07 02:18:41;;;;;;;5.57;2.55;;;21.60;51.90;;;;;;5035591;28;20084;-69
2022/07/07 02:21:09;;;;;;;3.47;2.38;;;21.60;51.70;;;;;;5035433;28;20112;-69
2022/07/07 02:23:36;;;;;;;6.65;2.50;;;21.60;51.80;;;;;;5035483;28;20033;-69
2022/07/07 02:26:03;;;;;;;4.25;2.28;;;21.60;51.90;;;;;;5035464;28;20033;-69
2022/07/07 02:28:29;;;;;;;3.38;2.58;;;21.60;52.00;;;;;;5034110;28;20131;-70
2022/07/07 02:30:56;;;;;;;3.15;2.40;;;21.50;52.10;;;;;;5035485;28;20142;-71
2022/07/07 02:33:23;;;;;;;3.47;2.55;;;21.50;52.40;;;;;;5035826;28;20030;-71
2022/07/07 02:35:50;;;;;;;3.83;2.75;;;21.40;52.50;;;;;;5035270;28;20434;-71
2022/07/07 02:38:16;;;;;;;6.55;2.92;;;21.40;52.60;;;;;;5035254;28;20025;-69
2022/07/07 02:40:43;;;;;;;3.72;2.65;;;21.30;52.70;;;;;;5035148;28;20029;-71
2022/07/07 02:43:12;;;;;;;2.70;2.47;;;21.30;53.10;;;;;;5035037;28;20022;-71
2022/07/07 02:45:42;;;;;;;3.03;2.63;;;21.20;53.20;;;;;;5035073;28;20529;-70
2022/07/07 02:48:09;;;;;;;5.43;3.00;;;21.10;53.40;;;;;;5033740;28;20144;-69
2022/07/07 02:50:36;;;;;;;4.45;3.03;;;21.10;53.80;;;;;;5035034;28;20100;-71
2022/07/07 02:53:02;;;;;;;3.67;2.80;;;21.00;54.00;;;;;;5033705;28;20025;-71
2022/07/07 02:55:29;;;;;;;5.97;2.75;;;21.00;54.00;;;;;;5034672;28;20509;-72
2022/07/07 02:57:54;;;;;;;3.50;3.00;;;20.90;54.40;;;;;;5034947;28;20036;-69
2022/07/07 03:00:20;;;;;;;4.05;2.58;;;20.90;54.80;;;;;;5034600;28;20101;-69
2022/07/07 03:02:46;;;;;;;3.70;2.92;;;20.80;54.90;;;;;;5034755;28;20048;-71
2022/07/07 03:05:12;;;;;;;6.45;2.88;;;20.80;55.10;;;;;;5034676;28;20097;-72
2022/07/07 03:07:38;;;;;;;5.35;2.80;;;20.70;55.30;;;;;;5034692;28;20029;-71
2022/07/07 03:10:08;;;;;;;6.20;2.88;;;20.70;55.60;;;;;;5034648;28;20022;-69
2022/07/07 03:12:34;;;;;;;9.00;3.00;;;20.60;55.60;;;;;;5034576;28;20430;-68
2022/07/07 03:15:00;;;;;;;5.18;3.00;;;20.60;56.00;;;;;;5034532;28;20025;-71
2022/07/07 03:17:26;;;;;;;3.05;2.60;;;20.50;55.90;;;;;;5034459;28;20072;-70
2022/07/07 03:19:52;;;;;;;2.90;2.60;;;20.50;56.10;;;;;;5034433;28;20515;-69
2022/07/07 03:22:18;;;;;;;5.80;2.80;;;20.40;56.20;;;;;;5034226;28;20026;-71
2022/07/07 03:24:44;;;;;;;4.60;2.67;;;20.40;56.50;;;;;;5034415;28;20076;-71
2022/07/07 03:27:09;;;;;;;4.15;2.83;;;20.40;56.80;;;;;;5036507;28;20067;-70
2022/07/07 03:29:35;;;;;;;5.35;2.72;;;20.30;57.00;;;;;;5037968;28;20476;-69
2022/07/07 03:32:01;;;;;;;3.55;2.85;;;20.30;57.10;;;;;;5032900;28;20025;-70
2022/07/07 03:34:27;;;;;;;6.00;3.10;;;20.30;57.30;;;;;;5034066;28;20131;-71
2022/07/07 03:36:53;;;;;;;4.25;2.35;;;20.30;57.30;;;;;;5034543;28;20117;-70
2022/07/07 03:39:18;;;;;;;3.55;3.03;;;20.30;57.50;;;;;;5032781;28;20103;-71
2022/07/07 03:41:44;;;;;;;10.75;2.40;;;20.30;57.30;;;;;;5033795;28;20041;-69
2022/07/07 03:44:10;;;;;;;3.10;2.50;;;20.30;57.30;;;;;;5033836;28;20033;-69
2022/07/07 03:46:36;;;;;;;7.63;2.90;;;20.40;57.50;;;;;;5034074;28;20029;-71
2022/07/07 03:49:02;;;;;;;7.22;2.75;;;20.40;57.60;;;;;;5032502;28;20022;-69
2022/07/07 03:51:27;;;;;;;3.00;2.63;;;20.40;57.30;;;;;;5033839;28;20112;-70
2022/07/07 03:53:53;;;;;;;4.10;2.83;;;20.50;57.00;;;;;;5033765;28;20017;-70
2022/07/07 03:56:19;;;;;;;5.07;2.80;;;20.50;57.20;;;;;;5033634;28;20049;-71
2022/07/07 03:58:45;;;;;;;6.03;2.47;;;20.50;57.10;;;;;;5033600;28;20044;-70
2022/07/07 04:01:11;;;;;;;3.63;2.78;;;20.60;57.00;;;;;;5032365;28;20033;-70
2022/07/07 04:03:37;;;;;;;3.65;2.70;;;20.60;56.90;;;;;;5032416;28;20025;-70
2022/07/07 04:06:05;;;;;;;4.03;2.85;;;20.60;56.70;;;;;;5033468;28;20506;-69
2022/07/07 04:08:32;;;;;;;6.05;3.53;;;20.70;56.60;;;;;;5032239;28;20463;-69
2022/07/07 04:10:58;;;;;;;7.70;3.08;;;20.70;56.50;;;;;;5033419;28;20403;-69
2022/07/07 04:13:24;;;;;;;5.22;2.85;;;20.80;56.30;;;;;;5033320;28;20038;-70
2022/07/07 04:15:50;;;;;;;3.35;2.70;;;20.80;56.40;;;;;;5033338;28;20025;-70
2022/07/07 04:18:16;;;;;;;3.40;2.80;;;20.90;56.30;;;;;;5032877;28;20091;-69
2022/07/07 04:20:42;;;;;;;4.55;2.80;;;20.90;56.10;;;;;;5031842;28;20041;-69
2022/07/07 04:23:08;;;;;;;2.97;2.67;;;21.00;56.10;;;;;;5031925;28;20029;-71
2022/07/07 04:25:34;;;;;;;5.50;2.67;;;21.10;56.10;;;;;;5031943;28;20479;-71
2022/07/07 04:27:59;;;;;;;3.25;2.50;;;21.10;56.30;;;;;;5033533;28;20056;-71
2022/07/07 04:30:25;;;;;;;4.68;2.70;;;21.20;55.50;;;;;;5034737;28;20475;-69
2022/07/07 04:32:51;;;;;;;4.75;3.15;;;21.30;55.20;;;;;;5033100;28;20029;-71
2022/07/07 04:35:17;;;;;;;3.50;2.75;;;21.40;55.00;;;;;;5033126;28;20025;-69
2022/07/07 04:37:42;;;;;;;4.05;2.95;;;21.40;54.40;;;;;;5033016;28;20024;-70
2022/07/07 04:40:08;;;;;;;5.07;2.65;;;21.50;53.80;;;;;;5032984;28;20013;-70
2022/07/07 04:42:34;;;;;;;6.25;2.67;;;21.50;53.50;;;;;;5031555;28;20483;-70
2022/07/07 04:45:00;;;;;;;3.70;2.88;;;21.50;53.90;;;;;;5032775;28;20021;-70
2022/07/07 04:47:26;;;;;;;5.25;3.10;;;21.60;53.30;;;;;;5039712;28;20021;-70
2022/07/07 04:49:52;;;;;;;12.77;2.47;;;21.60;53.00;;;;;;5052732;28;20032;-70
2022/07/07 04:52:18;;;;;;;2.83;2.47;;;21.60;52.90;;;;;;5052782;28;20478;-71
2022/07/07 04:54:43;;;;;;;6.57;2.58;;;21.70;52.70;;;;;;5052695;28;20475;-71
2022/07/07 04:57:09;;;;;;;3.20;2.13;;;21.70;52.60;;;;;;5039808;28;20050;-72
2022/07/07 04:59:35;;;;;;;5.50;2.65;;;21.70;52.60;;;;;;5032691;28;20562;-70
2022/07/07 05:02:01;;;;;;;2.67;2.25;;;21.80;52.40;;;;;;5044423;28;20100;-71
2022/07/07 05:04:28;;;;;;;5.90;2.65;;;21.80;52.40;;;;;;5052540;28;20487;-71
2022/07/07 05:06:53;;;;;;;4.55;2.65;;;21.80;52.40;;;;;;5052520;28;20079;-72
2022/07/07 05:09:19;;;;;;;3.83;2.45;;;21.90;52.40;;;;;;5052438;28;20025;-71
2022/07/07 05:11:45;;;;;;;5.35;2.63;;;22.00;52.30;;;;;;5052477;28;20111;-69
2022/07/07 05:14:11;;;;;;;4.78;2.70;;;22.00;52.20;;;;;;5052442;28;20043;-69
2022/07/07 05:16:37;;;;;;;5.85;2.55;;;22.10;52.00;;;;;;5052506;28;20028;-71
2022/07/07 05:19:04;;;;;;;3.03;2.35;;;22.20;51.80;;;;;;5052443;28;20095;-72
2022/07/07 05:21:29;;;;;;;4.82;2.60;;;22.30;51.60;;;;;;5052085;28;20438;-69
2022/07/07 05:23:55;;;;;;;2.90;2.60;;;22.40;51.30;;;;;;5052409;28;20029;-71
2022/07/07 05:26:21;;;;;;;5.95;2.78;;;22.50;51.00;;;;;;5052470;28;20051;-69
2022/07/07 05:28:47;;;;;;;3.63;2.70;;;22.50;51.00;;;;;;5044331;28;20022;-70
2022/07/07 05:31:14;;;;;;;3.67;2.50;;;22.60;50.50;;;;;;5047894;28;20025;-70
2022/07/07 05:33:41;;;;;;;6.15;2.60;;;22.60;50.40;;;;;;5036247;28;20112;-70
2022/07/07 05:36:08;;;;;;;6.28;2.45;;;22.70;50.10;;;;;;5036277;28;20030;-71
2022/07/07 05:38:34;;;;;;;2.40;2.20;;;22.70;50.10;;;;;;5036307;28;20342;-69
2022/07/07 05:41:01;;;;;;;3.25;2.45;;;22.70;49.80;;;;;;5036038;28;20075;-70
2022/07/07 05:43:27;;;;;;;3.72;2.30;;;22.80;50.00;;;;;;5041849;28;20023;-69
2022/07/07 05:45:53;;;;;;;8.30;2.20;;;22.80;49.70;;;;;;5054702;28;20036;-70
2022/07/07 05:48:19;;;;;;;3.85;2.25;;;22.80;48.80;;;;;;5038124;28;20063;-69
2022/07/07 05:50:44;;;;;;;3.88;2.53;;;22.90;48.90;;;;;;5035891;28;20091;-72
2022/07/07 05:53:11;;;;;;;7.75;2.45;;;22.90;48.40;;;;;;5047197;28;20417;-69
2022/07/07 05:55:37;;;;;;;8.98;2.67;;;22.90;48.40;;;;;;5044084;28;20133;-69
2022/07/07 05:58:03;;;;;;;6.18;2.00;;;22.90;48.00;;;;;;5036039;28;20439;-69
2022/07/07 06:00:29;;;;;;;7.28;2.10;;;23.00;48.00;;;;;;5035582;28;20025;-69
2022/07/07 06:02:55;;;;;;;8.45;3.00;;;22.90;47.80;;;;;;5035887;28;20475;-72
2022/07/07 06:05:22;;;;;;;7.93;2.65;;;22.90;48.00;;;;;;5035477;28;20084;-71
2022/07/07 06:07:48;;;;;;;6.05;2.83;;;22.90;47.70;;;;;;5035566;28;20021;-70
2022/07/07 06:10:14;;;;;;;5.63;2.50;;;22.90;47.60;;;;;;5039575;28;20026;-71
2022/07/07 06:12:41;;;;;;;5.13;1.98;;;22.90;47.70;;;;;;5033519;28;20041;-71
2022/07/07 06:15:08;;;;;;;6.57;2.45;;;22.90;47.70;;;;;;5036296;28;20025;-71
2022/07/07 06:17:34;;;;;;;5.47;2.63;;;22.90;47.80;;;;;;5035596;28;20383;-71
2022/07/07 06:20:00;;;;;;;3.97;2.33;;;22.90;47.80;;;;;;5035993;28;20032;-71
2022/07/07 06:22:27;;;;;;;4.55;2.42;;;23.00;48.10;;;;;;5035514;28;20025;-71
2022/07/07 06:24:53;;;;;;;7.00;2.25;;;23.00;47.90;;;;;;5035597;28;20026;-69
2022/07/07 06:27:20;;;;;;;5.95;2.38;;;23.00;48.00;;;;;;5035500;28;20080;-70
2022/07/07 06:29:46;;;;;;;6.90;2.60;;;23.10;47.90;;;;;;5035156;28;20562;-69
2022/07/07 06:32:15;;;;;;;2.25;2.03;;;23.10;47.90;;;;;;5035311;28;20422;-70
2022/07/07 06:34:42;;;;;;;3.60;2.17;;;23.20;48.00;;;;;;5040440;28;20108;-71
2022/07/07 06:37:08;;;;;;;3.63;2.75;;;23.20;47.70;;;;;;5055236;28;20021;-71
2022/07/07 06:39:34;;;;;;;5.20;2.00;;;23.30;47.60;;;;;;5053493;28;20188;-72
2022/07/07 06:42:00;;;;;;;4.35;2.72;;;23.40;47.70;;;;;;5055088;28;20227;-69
2022/07/07 06:44:30;;;;;;;5.35;2.20;;;23.40;47.30;;;;;;5055081;28;20071;-69
2022/07/07 06:47:00;;;;;;;3.35;2.53;;;23.50;47.40;;;;;;5055204;28;20017;-72
2022/07/07 06:49:26;;;;;;;2.55;2.35;;;23.50;46.80;;;;;;5055644;28;20021;-69
2022/07/07 06:51:52;;;;;;;2.70;2.10;;;23.50;46.20;;;;;;5054873;28;20108;-69
2022/07/07 06:54:19;;;;;;;4.63;2.38;;;23.50;46.10;;;;;;5041264;28;20029;-71
2022/07/07 06:56:44;;;;;;;4.10;2.40;;;23.60;45.70;;;;;;5033554;28;20053;-71
2022/07/07 06:59:10;;;;;;;4.18;1.98;;;23.70;45.90;;;;;;5034780;28;20096;-71
2022/07/07 07:01:36;;;;;;;5.18;2.50;;;23.70;45.40;;;;;;5034713;28;20053;-71
2022/07/07 07:04:02;;;;;;;5.20;2.10;;;23.80;44.80;;;;;;5034760;28;20022;-69
2022/07/07 07:06:28;;;;;;;3.55;2.20;;;23.90;44.40;;;;;;5034733;28;20018;-69
2022/07/07 07:08:55;;;;;;;2.15;1.95;;;23.90;44.50;;;;;;5034716;28;20527;-71
2022/07/07 07:11:21;;;;;;;4.00;2.25;;;24.00;44.10;;;;;;5034732;28;20030;-71
2022/07/07 07:13:47;;;;;;;8.02;2.45;;;24.10;44.20;;;;;;5034329;28;20044;-72
2022/07/07 07:16:16;;;;;;;5.30;2.70;;;24.20;43.70;;;;;;5034581;28;20021;-72
2022/07/07 07:18:42;;;;;;;6.13;2.10;;;24.30;42.40;;;;;;5034575;28;20025;-71
2022/07/07 07:21:08;;;;;;;6.45;2.38;;;24.30;42.90;;;;;;5034420;28;20032;-71
2022/07/07 07:23:34;;;;;;;4.93;2.38;;;24.30;41.90;;;;;;5034443;28;20036;-69
2022/07/07 07:26:00;;;;;;;7.35;1.77;;;24.30;41.50;;;;;;5034156;28;20471;-71
2022/07/07 07:28:25;;;;;;;3.17;2.35;;;24.30;41.70;;;;;;5034341;28;20467;-71
2022/07/07 07:30:52;;;;;;;3.38;2.15;;;24.20;41.30;;;;;;5034274;28;20428;-70
2022/07/07 07:33:17;;;;;;;6.15;2.55;;;24.20;42.00;;;;;;5032937;28;20031;-71
2022/07/07 07:35:44;;;;;;;4.10;2.85;;;24.20;42.00;;;;;;5034190;28;20104;-70
2022/07/07 07:38:10;;;;;;;4.82;2.10;;;24.20;41.50;;;;;;5034062;28;20037;-70
2022/07/07 07:40:36;;;;;;;6.68;2.10;;;24.30;41.70;;;;;;5034086;28;20391;-70
2022/07/07 07:43:02;;;;;;;4.45;2.33;;;24.30;41.40;;;;;;5033966;28;20471;-71
2022/07/07 07:45:28;;;;;;;6.15;2.60;;;24.30;41.30;;;;;;5033920;28;20048;-71
2022/07/07 07:47:56;;;;;;;2.33;2.10;;;24.30;41.10;;;;;;5032580;28;20479;-69
2022/07/07 07:50:22;;;;;;;5.97;2.10;;;24.30;40.80;;;;;;5033815;28;20013;-70
2022/07/07 07:52:49;;;;;;;4.75;2.10;;;24.40;40.80;;;;;;5032884;28;20378;-72
2022/07/07 07:55:17;;;;;;;4.07;2.35;;;24.40;40.30;;;;;;5033475;28;20026;-69
2022/07/07 07:57:44;;;;;;;2.63;1.80;;;24.40;40.50;;;;;;5033700;28;20386;-71
2022/07/07 08:00:12;;;;;;;3.13;2.00;;;24.50;40.80;;;;;;5033624;28;20022;-72
2022/07/07 08:02:39;;;;;;;2.22;1.92;;;24.50;40.50;;;;;;5032293;28;20157;-70
2022/07/07 08:05:06;;;;;;;6.95;1.95;;;24.60;40.70;;;;;;5033561;28;20048;-70
2022/07/07 08:07:32;;;;;;;3.10;2.22;;;24.70;40.80;;;;;;5033382;28;20026;-72
2022/07/07 08:09:59;;;;;;;5.90;2.25;;;24.80;40.10;;;;;;5033508;28;20475;-70
2022/07/07 08:12:25;;;;;;;2.92;2.28;;;24.90;40.00;;;;;;5032320;28;20037;-72
2022/07/07 08:14:51;;;;;;;3.65;2.10;;;24.90;39.50;;;;;;5032045;28;20028;-69
2022/07/07 08:17:17;;;;;;;5.35;1.98;;;25.00;39.30;;;;;;5033521;28;20053;-71
2022/07/07 08:19:43;;;;;;;8.18;3.17;;;25.10;39.60;;;;;;5033366;28;20026;-70
2022/07/07 08:22:10;;;;;;;6.13;2.90;;;25.10;39.40;;;;;;5033342;28;20088;-71
2022/07/07 08:24:36;;;;;;;3.83;2.47;;;25.20;38.00;;;;;;5032053;28;20537;-72
2022/07/07 08:27:03;;;;;;;7.63;2.50;;;25.10;38.30;;;;;;5033278;28;20029;-71
2022/07/07 08:29:29;;;;;;;2.88;2.42;;;25.10;39.80;;;;;;5033324;28;20017;-71
2022/07/07 08:31:55;;;;;;;3.10;2.40;;;25.00;41.40;;;;;;5033222;28;20036;-71
2022/07/07 08:34:21;;;;;;;2.35;1.88;;;24.90;41.60;;;;;;5033206;28;20036;-70
2022/07/07 08:36:47;;;;;;;6.05;2.53;;;24.80;41.90;;;;;;5033237;28;20037;-69
2022/07/07 08:39:13;;;;;;;6.43;2.45;;;24.70;43.80;;;;;;5033110;28;20029;-69
2022/07/07 08:41:40;;;;;;;4.95;2.78;;;24.50;44.60;;;;;;5032987;28;20052;-72
2022/07/07 08:44:06;;;;;;;2.78;2.30;;;24.40;43.90;;;;;;5032990;28;20053;-70
2022/07/07 08:46:32;;;;;;;2.85;2.40;;;24.30;45.20;;;;;;5033053;28;20020;-70
2022/07/07 08:48:58;;;;;;;4.65;2.55;;;24.20;45.00;;;;;;5031744;28;20021;-72
2022/07/07 08:51:25;;;;;;;9.40;3.30;;;24.10;44.60;;;;;;5032914;28;20030;-70
2022/07/07 08:53:52;;;;;;;3.85;2.10;;;24.10;45.60;;;;;;5032982;28;20033;-70
2022/07/07 08:56:19;;;;;;;3.80;2.92;;;24.10;45.70;;;;;;5032687;28;20053;-71
2022/07/07 08:58:45;;;;;;;6.72;2.53;;;24.10;46.40;;;;;;5032889;28;20095;-70
2022/07/07 09:01:12;;;;;;;3.53;2.33;;;24.10;45.80;;;;;;5032813;28;20025;-70
2022/07/07 09:03:38;;;;;;;6.90;2.78;;;24.10;45.70;;;;;;5035163;28;20022;-72
2022/07/07 09:06:04;;;;;;;6.88;2.67;;;24.00;45.90;;;;;;5038123;28;20052;-72
2022/07/07 09:08:31;;;;;;;4.10;2.60;;;24.00;46.00;;;;;;5039417;28;20476;-70
2022/07/07 09:10:58;;;;;;;3.50;2.70;;;23.90;46.80;;;;;;5039372;28;20039;-71
2022/07/07 09:13:26;;;;;;;3.67;2.40;;;23.70;47.00;;;;;;5039274;28;20026;-72
2022/07/07 09:16:01;;;;;;;4.07;2.53;;;23.70;47.20;;;;;;5039233;28;20044;-70
2022/07/07 09:18:30;;;;;;;3.50;2.20;;;23.60;47.90;;;;;;5039188;28;20048;-69
2022/07/07 09:20:57;;;;;;;6.53;3.08;;;23.50;48.00;;;;;;5039217;28;20022;-70
2022/07/07 09:23:23;;;;;;;6.32;3.00;;;23.50;48.90;;;;;;5039298;28;20017;-70
2022/07/07 09:25:49;;;;;;;4.35;2.55;;;23.40;49.10;;;;;;5038050;28;20379;-70
2022/07/07 09:28:15;;;;;;;5.85;2.70;;;23.40;49.10;;;;;;5039242;28;20091;-72
2022/07/07 09:30:43;;;;;;;4.20;2.63;;;23.40;49.10;;;;;;5039148;28;20096;-70
2022/07/07 09:33:12;;;;;;;4.47;2.50;;;23.40;49.50;;;;;;5039162;28;20117;-71
2022/07/07 09:38:27;;;;;;;4.78;2.75;;;23.50;48.90;;;;;;5039500;28;20166;-71
2022/07/07 09:41:03;;;;;;;7.25;2.80;;;23.60;50.00;;;;;;5039095;28;20383;-71
2022/07/07 09:43:34;;;;;;;7.00;2.88;;;23.60;49.50;;;;;;5039153;28;20116;-72
2022/07/07 09:46:10;;;;;;;6.30;2.97;;;23.70;49.50;;;;;;5039314;28;20025;-71
2022/07/07 09:48:37;;;;;;;7.57;2.88;;;23.70;48.90;;;;;;5037968;28;20495;-72
2022/07/07 09:51:23;;;;;;;4.50;2.90;;;23.80;49.10;;;;;;5039332;28;20034;-71
2022/07/07 09:54:02;;;;;;;4.82;2.63;;;23.80;48.90;;;;;;5039329;28;20029;-70
2022/07/07 09:56:31;;;;;;;6.13;3.22;;;23.90;48.90;;;;;;5038979;28;20045;-71
2022/07/07 09:58:59;;;;;;;3.47;2.78;;;24.00;48.30;;;;;;5037855;28;20051;-70
2022/07/07 10:01:30;;;;;;;3.05;2.35;;;24.00;48.20;;;;;;5037884;28;20426;-71
2022/07/07 10:03:59;;;;;;;6.00;2.97;;;24.10;48.70;;;;;;5038788;28;20080;-71
2022/07/07 10:06:27;;;;;;;3.35;2.08;;;24.10;48.10;;;;;;5039024;28;20036;-70
2022/07/07 10:09:26;;;;;;;2.15;1.88;;;24.20;48.20;;;;;;5038941;28;20025;-71
2022/07/07 10:11:54;;;;;;;7.95;2.97;;;24.30;48.30;;;;;;5036737;28;20107;-68
2022/07/07 10:14:42;;;;;;;4.55;2.30;;;24.40;47.80;;;;;;5037327;28;20029;-70
2022/07/07 10:17:10;;;;;;;5.95;2.75;;;24.50;47.30;;;;;;5035840;28;20021;-71
2022/07/07 10:19:36;;;;;;;5.35;2.10;;;24.50;46.90;;;;;;5034309;28;20383;-70
2022/07/07 10:22:03;;;;;;;8.65;2.67;;;24.60;46.70;;;;;;5035533;28;20029;-70
2022/07/07 10:24:35;;;;;;;2.92;2.10;;;24.70;46.90;;;;;;5035642;28;20025;-70
2022/07/07 10:27:03;;;;;;;3.47;2.47;;;24.80;46.80;;;;;;5035494;28;20032;-70
2022/07/07 10:29:45;;;;;;;3.97;2.47;;;24.90;47.30;;;;;;5034228;28;20029;-71
2022/07/07 10:32:39;;;;;;;3.17;2.80;;;25.10;46.70;;;;;;5035419;28;20105;-71
2022/07/07 10:35:14;;;;;;;2.97;2.35;;;25.30;47.40;;;;;;5035413;28;20037;-71
2022/07/07 10:37:45;;;;;;;5.80;2.60;;;25.60;47.60;;;;;;5033823;28;20487;-71
2022/07/07 10:40:25;;;;;;;4.18;2.50;;;25.80;47.20;;;;;;5033924;28;20352;-70
2022/07/07 10:43:12;;;;;;;3.88;2.40;;;26.10;46.20;;;;;;5034971;28;20029;-71
2022/07/07 10:45:46;;;;;;;4.57;2.75;;;26.40;46.00;;;;;;5035026;28;20394;-71
2022/07/07 10:48:44;;;;;;;4.70;2.58;;;26.60;44.90;;;;;;5043012;28;20021;-72
2022/07/07 10:51:27;;;;;;;3.10;2.30;;;26.70;43.70;;;;;;5055011;28;20112;-71
2022/07/07 10:54:08;;;;;;;3.85;2.45;;;26.80;43.00;;;;;;5053801;28;20056;-69
2022/07/07 10:56:53;;;;;;;4.10;2.88;;;26.90;42.30;;;;;;5054904;28;20045;-71
2022/07/07 10:59:23;;;;;;;3.85;2.55;;;27.00;41.70;;;;;;5055366;28;20025;-68
2022/07/07 11:02:01;;;;;;;4.53;2.28;;;27.00;40.70;;;;;;5054756;28;20033;-69
2022/07/07 11:04:42;;;;;;;5.22;2.20;;;27.00;40.80;;;;;;5054682;28;20029;-68
2022/07/07 11:07:16;;;;;;;2.65;2.40;;;26.90;40.50;;;;;;5054733;28;20013;-69
2022/07/07 11:10:02;;;;;;;2.65;2.22;;;26.90;41.10;;;;;;5054759;28;20032;-69
2022/07/07 11:12:44;;;;;;;4.03;2.30;;;26.90;41.40;;;;;;5054866;28;20471;-70
2022/07/07 11:15:33;;;;;;;4.47;2.28;;;26.90;41.60;;;;;;5054414;28;20033;-71
2022/07/07 11:18:04;;;;;;;3.00;2.67;;;26.80;41.60;;;;;;5053820;28;20123;-71
2022/07/07 11:20:32;;;;;;;2.75;2.25;;;26.90;41.70;;;;;;5054414;28;20033;-69
2022/07/07 11:23:12;;;;;;;3.42;2.08;;;26.90;41.30;;;;;;5053125;28;20119;-71
2022/07/07 11:25:39;;;;;;;3.30;2.28;;;26.90;41.50;;;;;;5052815;28;20017;-71
2022/07/07 11:28:07;;;;;;;12.75;2.47;;;26.90;41.00;;;;;;5052122;28;20048;-69
2022/07/07 11:30:33;;;;;;;5.47;2.50;;;26.90;41.20;;;;;;5054289;28;20096;-71
2022/07/07 11:33:00;;;;;;;5.43;2.20;;;27.00;41.00;;;;;;5054340;28;20013;-70
2022/07/07 11:35:31;;;;;;;5.43;2.45;;;26.90;40.70;;;;;;5052861;28;20029;-70
2022/07/07 11:37:58;;;;;;;3.75;2.40;;;26.90;40.50;;;;;;5053980;28;20016;-71
2022/07/07 11:40:25;;;;;;;5.22;2.40;;;26.90;40.70;;;;;;5054087;28;20432;-71
2022/07/07 11:42:51;;;;;;;12.35;2.60;;;26.90;41.00;;;;;;5053820;28;20029;-70
2022/07/07 11:45:26;;;;;;;6.35;3.13;;;27.00;40.90;;;;;;5053889;28;20082;-70
2022/07/07 11:47:57;;;;;;;5.38;2.17;;;27.00;40.70;;;;;;5054071;28;20375;-72
2022/07/07 11:50:24;;;;;;;6.40;2.40;;;27.00;40.50;;;;;;5053902;28;20025;-69
2022/07/07 11:52:57;;;;;;;3.63;2.60;;;27.10;40.70;;;;;;5053879;28;20177;-69
2022/07/07 11:55:24;;;;;;;4.20;2.35;;;27.10;41.10;;;;;;5052386;28;20522;-72
2022/07/07 11:57:53;;;;;;;4.93;2.50;;;27.10;40.60;;;;;;5053887;28;20103;-70
2022/07/07 12:00:22;;;;;;;4.20;2.25;;;27.10;40.30;;;;;;5053747;28;20108;-70
2022/07/07 12:02:53;;;;;;;4.15;2.67;;;27.00;39.10;;;;;;5052063;28;20036;-71
2022/07/07 12:05:30;;;;;;;2.35;2.10;;;26.80;38.60;;;;;;5053616;28;20098;-70
2022/07/07 12:08:03;;;;;;;3.80;2.50;;;26.70;39.20;;;;;;5053616;28;20091;-70
2022/07/07 12:10:32;;;;;;;3.30;2.63;;;26.60;39.50;;;;;;5053623;28;20013;-70
2022/07/07 12:13:00;;;;;;;6.30;2.60;;;26.50;40.00;;;;;;5053443;28;20096;-70
2022/07/07 12:15:28;;;;;;;4.28;2.65;;;26.30;39.20;;;;;;5053408;28;20017;-70
2022/07/07 12:17:54;;;;;;;6.43;2.50;;;26.10;39.40;;;;;;5053378;28;20013;-71
2022/07/07 12:20:20;;;;;;;3.55;2.50;;;26.10;41.20;;;;;;5053318;28;20032;-71
2022/07/07 12:22:55;;;;;;;4.32;3.05;;;26.10;41.40;;;;;;5053191;28;20031;-71
2022/07/07 12:25:23;;;;;;;5.10;3.95;;;26.00;40.50;;;;;;5053216;28;20021;-69
2022/07/07 12:28:03;;;;;;;3.88;2.78;;;25.90;39.90;;;;;;5053241;28;20051;-71
2022/07/07 12:30:32;;;;;;;5.03;3.17;;;25.70;40.10;;;;;;5053290;28;20379;-71
2022/07/07 12:32:59;;;;;;;5.45;2.80;;;25.60;40.00;;;;;;5051720;28;20027;-70
2022/07/07 12:35:38;;;;;;;4.38;2.47;;;25.50;40.70;;;;;;5053001;28;20025;-70
2022/07/07 12:38:08;;;;;;;4.38;3.40;;;25.40;42.10;;;;;;5052663;28;20013;-71
2022/07/07 12:40:36;;;;;;;6.82;3.10;;;25.30;41.70;;;;;;5052986;28;20446;-70
2022/07/07 12:43:06;;;;;;;5.25;3.03;;;25.20;42.30;;;;;;5053019;28;20048;-72
2022/07/07 12:45:32;;;;;;;3.47;3.05;;;25.10;44.00;;;;;;5052808;28;20465;-71
2022/07/07 12:47:58;;;;;;;7.18;4.03;;;24.90;44.10;;;;;;5052818;28;20037;-71
2022/07/07 12:50:25;;;;;;;4.47;3.20;;;24.80;44.40;;;;;;5052857;28;20465;-71
2022/07/07 12:53:07;;;;;;;4.28;3.33;;;24.70;45.70;;;;;;5052811;28;20405;-71